Time;durP1;ratioP1;P1;durP2;ratioP2;P2;SDS_P1;SDS_P2;PMS_P1;PMS_P2;Temp;Humidity;BMP_temperature;BMP_pressure;BME280_temperature;BME280_humidity;BME280_pressure;Samples;Min_cycle;Max_cycle;Signal;HPM_P1;HPM_P2
2024/04/11 00:00:10;;;;;;;8.33;2.33;;;13.40;1.00;;;;;;5452122;26;20213;-77
2024/04/11 00:02:36;;;;;;;5.97;1.90;;;13.40;1.00;;;;;;5451598;26;20266;-76
2024/04/11 00:05:03;;;;;;;5.97;1.87;;;13.40;1.00;;;;;;5451332;26;20674;-77
2024/04/11 00:07:30;;;;;;;9.23;3.03;;;13.50;1.00;;;;;;5449087;26;20690;-77
2024/04/11 00:09:55;;;;;;;7.37;2.90;;;13.40;1.00;;;;;;5451529;26;20221;-76
2024/04/11 00:12:21;;;;;;;9.00;2.70;;;13.40;1.00;;;;;;5451012;26;20722;-77
2024/04/11 00:14:49;;;;;;;10.43;3.40;;;13.40;1.00;;;;;;5451345;26;20302;-77
2024/04/11 00:17:15;;;;;;;7.73;2.27;;;13.40;1.00;;;;;;5448916;26;20241;-77
2024/04/11 00:19:41;;;;;;;6.80;2.87;;;13.40;1.00;;;;;;5450755;26;20274;-77
2024/04/11 00:22:10;;;;;;;7.87;3.23;;;13.40;1.00;;;;;;5451260;26;20217;-78
2024/04/11 00:24:36;;;;;;;5.53;2.10;;;13.40;1.00;;;;;;5452586;26;20595;-77
2024/04/11 00:27:02;;;;;;;9.97;2.90;;;13.40;1.00;;;;;;5454431;26;20213;-77
2024/04/11 00:29:28;;;;;;;8.60;3.03;;;13.40;1.00;;;;;;5454631;26;20260;-77
2024/04/11 00:31:54;;;;;;;9.87;2.40;;;13.40;1.00;;;;;;5454536;26;20219;-77
2024/04/11 00:34:23;;;;;;;7.47;2.40;;;13.40;1.00;;;;;;5454485;26;20217;-76
2024/04/11 00:36:50;;;;;;;5.50;2.00;;;13.40;1.00;;;;;;5454486;26;20556;-76
2024/04/11 00:39:20;;;;;;;7.53;2.10;;;13.50;1.00;;;;;;5452858;26;20240;-78
2024/04/11 00:41:49;;;;;;;6.40;1.73;;;13.40;1.00;;;;;;5454733;26;20291;-76
2024/04/11 00:44:16;;;;;;;10.47;2.53;;;13.30;1.00;;;;;;5454361;26;20221;-76
2024/04/11 00:46:47;;;;;;;5.57;2.00;;;13.40;1.00;;;;;;5453899;26;20225;-77
2024/04/11 00:49:15;;;;;;;5.90;2.00;;;13.30;1.00;;;;;;5454740;26;20225;-77
2024/04/11 00:51:42;;;;;;;8.20;2.53;;;13.40;1.00;;;;;;5454360;26;20545;-76
2024/04/11 00:54:08;;;;;;;7.40;1.90;;;13.50;1.00;;;;;;5453573;26;20227;-77
2024/04/11 00:56:35;;;;;;;8.13;2.27;;;13.50;1.00;;;;;;5454584;26;20415;-78
2024/04/11 00:59:01;;;;;;;5.43;1.73;;;13.50;1.00;;;;;;5454942;26;20716;-77
2024/04/11 01:01:30;;;;;;;5.60;1.93;;;13.60;1.00;;;;;;5454828;26;20284;-76
2024/04/11 01:03:59;;;;;;;9.07;2.50;;;13.60;1.00;;;;;;5454304;26;20268;-75
2024/04/11 01:06:25;;;;;;;5.57;1.87;;;13.60;1.00;;;;;;5454443;26;20753;-76
2024/04/11 01:08:51;;;;;;;6.70;1.60;;;13.60;1.00;;;;;;5454263;26;20215;-77
2024/04/11 01:11:16;;;;;;;5.10;1.90;;;13.60;1.00;;;;;;5454244;26;20236;-75
2024/04/11 01:13:44;;;;;;;9.20;2.47;;;13.50;1.00;;;;;;5453983;26;20239;-76
2024/04/11 01:16:10;;;;;;;11.83;2.80;;;13.50;1.00;;;;;;5451811;26;20221;-76
2024/04/11 01:18:35;;;;;;;6.90;2.57;;;13.50;1.00;;;;;;5453863;26;20227;-76
2024/04/11 01:21:01;;;;;;;7.80;2.50;;;13.50;1.00;;;;;;5451978;26;20309;-77
2024/04/11 01:23:27;;;;;;;6.37;2.20;;;13.50;1.00;;;;;;5453997;26;20740;-77
2024/04/11 01:25:53;;;;;;;7.40;2.20;;;13.50;1.00;;;;;;5452454;26;20223;-77
2024/04/11 01:28:19;;;;;;;8.20;3.17;;;13.50;1.00;;;;;;5453746;26;20218;-78
2024/04/11 01:30:44;;;;;;;7.37;2.40;;;13.50;1.00;;;;;;5451842;26;20562;-77
2024/04/11 01:33:10;;;;;;;9.03;2.90;;;13.50;1.00;;;;;;5453931;26;20324;-77
2024/04/11 01:35:36;;;;;;;8.57;2.47;;;13.40;1.00;;;;;;5453571;26;20676;-77
2024/04/11 01:38:02;;;;;;;9.73;2.90;;;13.50;1.00;;;;;;5453722;26;20729;-78
2024/04/11 01:40:36;;;;;;;11.20;3.33;;;13.40;1.00;;;;;;5453514;26;20303;-76
2024/04/11 01:43:02;;;;;;;11.37;4.73;;;13.40;1.00;;;;;;5453662;26;20266;-76
2024/04/11 01:45:28;;;;;;;7.37;2.80;;;13.40;1.00;;;;;;5453458;26;20558;-77
2024/04/11 01:47:54;;;;;;;7.63;2.80;;;13.40;1.00;;;;;;5453838;26;20750;-76
2024/04/11 01:50:21;;;;;;;7.10;2.17;;;13.30;1.00;;;;;;5453705;26;20256;-77
2024/04/11 01:52:47;;;;;;;8.63;2.70;;;13.40;1.00;;;;;;5453444;26;20265;-76
2024/04/11 01:55:13;;;;;;;7.03;2.20;;;13.40;1.00;;;;;;5453828;26;20213;-77
2024/04/11 01:57:38;;;;;;;12.63;2.83;;;13.40;1.00;;;;;;5453578;26;20696;-76
2024/04/11 02:00:12;;;;;;;7.33;2.77;;;13.40;1.00;;;;;;5453187;26;20693;-77
2024/04/11 02:02:44;;;;;;;10.57;2.97;;;13.50;1.00;;;;;;5453464;26;20217;-76
2024/04/11 02:05:14;;;;;;;8.43;4.17;;;13.50;1.00;;;;;;5453208;26;20267;-75
2024/04/11 02:07:40;;;;;;;8.67;2.00;;;13.50;1.00;;;;;;5453277;26;20262;-79
2024/04/11 02:10:06;;;;;;;9.20;3.80;;;13.50;1.00;;;;;;5453552;26;20311;-76
2024/04/11 02:12:32;;;;;;;8.83;2.80;;;13.50;1.00;;;;;;5452782;26;20228;-77
2024/04/11 02:14:58;;;;;;;10.07;3.20;;;13.50;1.00;;;;;;5453043;26;20224;-77
2024/04/11 02:17:24;;;;;;;8.03;2.50;;;13.50;1.00;;;;;;5453017;26;20233;-77
2024/04/11 02:19:51;;;;;;;8.67;3.20;;;13.40;1.00;;;;;;5453116;26;20220;-77
2024/04/11 02:22:17;;;;;;;6.60;2.83;;;13.40;1.00;;;;;;5453250;26;20219;-77
2024/04/11 02:24:43;;;;;;;5.53;2.07;;;13.40;1.00;;;;;;5451279;26;20240;-77
2024/04/11 02:27:09;;;;;;;8.50;2.90;;;13.40;1.00;;;;;;5453255;26;20725;-77
2024/04/11 02:29:35;;;;;;;9.73;3.10;;;13.50;1.00;;;;;;5452609;26;20259;-78
2024/04/11 02:32:02;;;;;;;9.00;3.37;;;13.50;1.00;;;;;;5453123;26;20691;-77
2024/04/11 02:34:29;;;;;;;11.90;4.10;;;13.50;1.00;;;;;;5452554;26;20220;-76
2024/04/11 02:36:55;;;;;;;8.93;2.77;;;13.50;1.00;;;;;;5452803;26;20224;-77
2024/04/11 02:39:21;;;;;;;8.50;3.30;;;13.50;1.00;;;;;;5452723;26;20266;-77
2024/04/11 02:41:47;;;;;;;9.50;4.00;;;13.40;1.00;;;;;;5452732;26;20232;-77
2024/04/11 02:44:14;;;;;;;11.73;4.23;;;13.40;1.00;;;;;;5452500;26;20439;-77
2024/04/11 02:46:40;;;;;;;12.97;4.97;;;13.50;1.00;;;;;;5450116;26;20234;-76
2024/04/11 02:49:05;;;;;;;12.27;4.00;;;13.40;1.00;;;;;;5450719;26;20270;-77
2024/04/11 02:51:35;;;;;;;6.50;2.43;;;13.40;1.00;;;;;;5452756;26;20266;-75
2024/04/11 02:54:05;;;;;;;12.87;2.87;;;13.40;1.00;;;;;;5452603;26;20291;-76
2024/04/11 02:56:31;;;;;;;10.47;4.57;;;13.40;1.00;;;;;;5452462;26;20221;-76
2024/04/11 02:58:58;;;;;;;7.00;1.90;;;13.40;1.00;;;;;;5450507;26;20293;-76
2024/04/11 03:01:25;;;;;;;12.17;4.30;;;13.30;1.00;;;;;;5452345;26;20228;-76
2024/04/11 03:03:58;;;;;;;6.50;2.80;;;13.30;1.00;;;;;;5452658;26;20316;-77
2024/04/11 03:06:24;;;;;;;6.70;2.50;;;13.30;1.00;;;;;;5452391;26;20220;-75
2024/04/11 03:08:51;;;;;;;7.40;3.33;;;13.30;1.00;;;;;;5452319;26;20580;-79
2024/04/11 03:11:17;;;;;;;12.60;4.27;;;13.40;1.00;;;;;;5452138;26;20216;-77
2024/04/11 03:13:43;;;;;;;7.53;2.60;;;13.50;1.00;;;;;;5451645;26;20226;-77
2024/04/11 03:16:14;;;;;;;7.87;2.77;;;13.30;1.00;;;;;;5451704;26;20259;-76
2024/04/11 03:18:40;;;;;;;11.00;4.87;;;13.20;1.00;;;;;;5452179;26;20259;-77
2024/04/11 03:21:06;;;;;;;9.67;2.83;;;13.20;1.00;;;;;;5452078;26;20237;-76
2024/04/11 03:23:32;;;;;;;9.27;3.37;;;13.20;1.00;;;;;;5451830;26;20209;-78
2024/04/11 03:26:01;;;;;;;8.07;2.93;;;13.20;1.00;;;;;;5451755;26;20281;-76
2024/04/11 03:28:27;;;;;;;7.17;3.23;;;13.30;1.00;;;;;;5451641;26;20217;-78
2024/04/11 03:31:08;;;;;;;9.77;3.80;;;13.40;1.00;;;;;;5451576;26;20262;-76
2024/04/11 03:33:34;;;;;;;9.77;3.80;;;13.40;1.00;;;;;;5450117;26;20232;-76
2024/04/11 03:36:05;;;;;;;9.73;3.80;;;13.40;1.00;;;;;;5451727;26;20217;-76
2024/04/11 03:38:31;;;;;;;6.20;1.93;;;13.40;1.00;;;;;;5451900;26;20267;-76
2024/04/11 03:41:09;;;;;;;15.87;7.07;;;13.50;1.00;;;;;;5451430;26;20220;-77
2024/04/11 03:43:35;;;;;;;11.77;5.13;;;13.60;1.00;;;;;;5451422;26;20246;-78
2024/04/11 03:46:18;;;;;;;11.67;4.90;;;13.50;1.00;;;;;;5451273;26;20276;-76
2024/04/11 03:48:45;;;;;;;6.87;3.23;;;13.40;1.00;;;;;;5451821;26;20326;-76
2024/04/11 03:51:17;;;;;;;15.77;6.87;;;13.40;1.00;;;;;;5449419;26;20231;-77
2024/04/11 03:53:43;;;;;;;7.73;2.63;;;13.40;2.20;;;;;;5451746;26;20231;-75
2024/04/11 03:56:09;;;;;;;28.03;15.40;;;13.30;5.90;;;;;;5450947;26;20223;-77
2024/04/11 03:58:38;;;;;;;21.33;11.10;;;13.30;7.60;;;;;;5452441;26;20266;-76
2024/04/11 04:01:07;;;;;;;10.27;5.10;;;13.20;10.80;;;;;;5454734;26;20279;-78
2024/04/11 04:03:36;;;;;;;10.40;4.50;;;13.20;12.00;;;;;;5454640;26;20696;-77
2024/04/11 04:06:02;;;;;;;12.03;6.17;;;13.20;13.90;;;;;;5454795;26;20247;-76
2024/04/11 04:08:28;;;;;;;20.03;10.03;;;13.30;12.80;;;;;;5454551;26;20296;-76
2024/04/11 04:10:55;;;;;;;13.23;4.97;;;13.40;12.00;;;;;;5454542;26;20267;-76
2024/04/11 04:13:21;;;;;;;13.00;5.70;;;13.40;15.20;;;;;;5454999;26;20263;-77
2024/04/11 04:15:46;;;;;;;13.30;4.20;;;13.40;16.90;;;;;;5454835;26;20225;-78
2024/04/11 04:18:12;;;;;;;18.23;7.40;;;13.40;17.20;;;;;;5455082;26;20274;-77
2024/04/11 04:20:42;;;;;;;20.57;7.43;;;13.40;18.90;;;;;;5452939;26;20221;-77
2024/04/11 04:23:10;;;;;;;24.67;11.40;;;13.30;22.60;;;;;;5453981;26;20257;-76
2024/04/11 04:25:39;;;;;;;30.83;12.57;;;13.40;24.20;;;;;;5454392;26;20216;-76
2024/04/11 04:28:06;;;;;;;28.63;10.90;;;13.30;26.40;;;;;;5454215;26;20216;-75
2024/04/11 04:30:33;;;;;;;31.87;13.13;;;13.40;29.70;;;;;;5454776;26;20246;-78
2024/04/11 04:32:59;;;;;;;14.77;5.13;;;13.40;31.10;;;;;;5452802;26;20228;-76
2024/04/11 04:35:28;;;;;;;29.57;10.60;;;13.30;35.10;;;;;;5454575;26;20219;-76
2024/04/11 04:37:55;;;;;;;14.40;5.60;;;13.30;38.60;;;;;;5452280;26;20226;-76
2024/04/11 04:40:21;;;;;;;21.50;8.00;;;13.30;40.30;;;;;;5453755;26;20305;-76
2024/04/11 04:42:47;;;;;;;19.57;8.50;;;13.30;42.00;;;;;;5454358;26;20216;-77
2024/04/11 04:45:13;;;;;;;27.60;10.90;;;13.30;43.60;;;;;;5454449;26;20254;-75
2024/04/11 04:47:40;;;;;;;17.10;6.20;;;13.40;43.60;;;;;;5454109;26;20664;-76
2024/04/11 04:50:06;;;;;;;22.20;9.33;;;13.50;42.70;;;;;;5454467;26;20651;-77
2024/04/11 04:52:32;;;;;;;23.27;10.53;;;13.40;46.10;;;;;;5453783;26;20219;-76
2024/04/11 04:54:59;;;;;;;26.30;12.87;;;13.40;47.10;;;;;;5453958;26;20301;-77
2024/04/11 04:57:26;;;;;;;9.37;2.80;;;13.40;48.60;;;;;;5453592;26;20255;-77
2024/04/11 04:59:51;;;;;;;25.77;12.70;;;13.40;49.00;;;;;;5453889;26;20215;-76
2024/04/11 05:02:17;;;;;;;20.70;7.37;;;13.40;48.80;;;;;;5453903;26;20216;-76
2024/04/11 05:04:45;;;;;;;24.57;11.27;;;13.50;49.10;;;;;;5453680;26;20763;-77
2024/04/11 05:07:12;;;;;;;31.13;14.23;;;13.50;49.40;;;;;;5454439;26;20280;-77
2024/04/11 05:09:38;;;;;;;17.57;8.50;;;13.50;49.90;;;;;;5453190;26;20230;-76
2024/04/11 05:12:06;;;;;;;24.67;11.40;;;13.40;51.00;;;;;;5453197;26;20267;-77
2024/04/11 05:14:38;;;;;;;19.90;7.70;;;13.40;52.70;;;;;;5453512;26;20213;-77
2024/04/11 05:17:09;;;;;;;14.07;5.13;;;13.40;53.30;;;;;;5453054;26;20333;-78
2024/04/11 05:19:35;;;;;;;15.33;8.43;;;13.30;52.40;;;;;;5452829;26;20248;-78
2024/04/11 05:22:01;;;;;;;17.50;6.50;;;13.30;53.30;;;;;;5474559;26;20227;-75
2024/04/11 05:24:27;;;;;;;21.97;9.83;;;13.30;53.20;;;;;;5486744;26;20663;-78
2024/04/11 05:26:52;;;;;;;26.03;13.67;;;13.30;53.40;;;;;;5488958;26;20218;-77
2024/04/11 05:29:18;;;;;;;30.43;19.10;;;13.30;54.20;;;;;;5488889;26;20702;-77
2024/04/11 05:31:45;;;;;;;30.43;18.03;;;13.30;54.10;;;;;;5489857;26;20322;-78
2024/04/11 05:34:16;;;;;;;18.73;6.30;;;13.30;52.80;;;;;;5490760;26;20265;-77
2024/04/11 05:36:44;;;;;;;9.27;3.50;;;13.40;53.50;;;;;;5488163;26;20213;-78
2024/04/11 05:39:14;;;;;;;8.60;2.73;;;13.40;53.10;;;;;;5488626;26;20707;-77
2024/04/11 05:41:43;;;;;;;7.27;2.20;;;13.30;52.50;;;;;;5489179;26;20218;-82
2024/04/11 05:44:10;;;;;;;5.97;2.00;;;13.30;54.00;;;;;;5489095;26;20466;-77
2024/04/11 05:46:36;;;;;;;7.33;1.97;;;13.30;54.20;;;;;;5488982;26;20268;-76
2024/04/11 05:49:04;;;;;;;7.03;2.00;;;13.30;55.40;;;;;;5488767;26;20214;-77
2024/04/11 05:51:30;;;;;;;6.37;2.07;;;13.30;56.30;;;;;;5488500;26;20262;-78
2024/04/11 05:53:56;;;;;;;10.83;2.23;;;13.20;57.60;;;;;;5489737;26;20557;-76
2024/04/11 05:56:21;;;;;;;9.70;3.67;;;13.30;57.20;;;;;;5487915;26;20261;-77
2024/04/11 05:58:49;;;;;;;9.37;2.00;;;13.40;57.20;;;;;;5487957;26;20732;-76
2024/04/11 06:01:19;;;;;;;11.43;2.87;;;13.50;57.10;;;;;;5490806;26;20245;-78
2024/04/11 06:03:46;;;;;;;11.13;2.30;;;13.40;58.40;;;;;;5486877;26;20258;-77
2024/04/11 06:06:13;;;;;;;9.67;2.43;;;13.40;60.50;;;;;;5486331;26;20785;-79
2024/04/11 06:08:43;;;;;;;8.93;2.23;;;13.50;61.40;;;;;;5486444;26;20839;-77
2024/04/11 06:11:10;;;;;;;12.40;2.40;;;13.50;61.40;;;;;;5489214;26;20224;-76
2024/04/11 06:13:36;;;;;;;8.87;2.10;;;13.60;59.10;;;;;;5486323;26;20229;-77
2024/04/11 06:16:02;;;;;;;9.00;2.70;;;13.60;60.90;;;;;;5488499;26;20257;-76
2024/04/11 06:18:30;;;;;;;6.30;2.20;;;13.60;62.90;;;;;;5488699;26;20230;-76
2024/04/11 06:20:56;;;;;;;6.30;2.47;;;13.60;61.20;;;;;;5488338;26;20224;-77
2024/04/11 06:23:22;;;;;;;11.17;2.77;;;13.70;59.80;;;;;;5484584;26;20739;-78
2024/04/11 06:25:47;;;;;;;9.23;2.20;;;13.80;57.10;;;;;;5487744;26;20222;-76
2024/04/11 06:28:18;;;;;;;7.73;2.47;;;13.80;57.80;;;;;;5478741;26;20232;-77
2024/04/11 06:30:54;;;;;;;6.03;2.10;;;13.70;62.00;;;;;;5487299;26;20236;-78
2024/04/11 06:33:22;;;;;;;9.63;2.57;;;13.80;59.00;;;;;;5526061;25;20212;-78
2024/04/11 06:35:51;;;;;;;7.00;2.27;;;13.80;59.70;;;;;;5522823;25;20703;-77
2024/04/11 06:38:20;;;;;;;10.30;2.67;;;13.70;66.30;;;;;;5456250;26;20302;-76
2024/04/11 06:40:48;;;;;;;9.73;2.33;;;13.80;66.40;;;;;;5487412;26;20227;-77
2024/04/11 06:43:16;;;;;;;12.10;2.60;;;13.90;63.50;;;;;;5482154;26;20719;-78
2024/04/11 06:45:44;;;;;;;5.50;1.83;;;13.80;66.60;;;;;;5480700;26;20287;-76
2024/04/11 06:48:10;;;;;;;8.63;2.33;;;13.70;70.00;;;;;;5455606;26;20247;-77
2024/04/11 06:50:36;;;;;;;10.77;2.57;;;13.80;71.80;;;;;;5451900;26;20330;-76
2024/04/11 06:53:05;;;;;;;5.80;2.40;;;13.80;72.50;;;;;;5452137;26;20213;-76
2024/04/11 06:55:32;;;;;;;8.67;2.40;;;13.70;74.00;;;;;;5476499;26;20345;-77
2024/04/11 06:57:57;;;;;;;8.00;2.30;;;13.60;77.10;;;;;;5450219;26;20302;-77
2024/04/11 07:00:35;;;;;;;7.63;2.27;;;13.60;79.40;;;;;;5471763;26;20332;-78
2024/04/11 07:03:16;;;;;;;6.80;2.30;;;13.60;81.10;;;;;;5487700;26;20702;-76
2024/04/11 07:05:52;;;;;;;8.03;2.30;;;13.60;82.10;;;;;;5487739;26;20212;-77
2024/04/11 07:08:19;;;;;;;7.90;2.90;;;13.60;81.00;;;;;;5487382;26;20263;-78
2024/04/11 07:10:46;;;;;;;7.70;2.57;;;13.80;77.60;;;;;;5485873;26;20693;-78
2024/04/11 07:13:14;;;;;;;9.90;2.63;;;13.80;76.70;;;;;;5486357;26;20235;-77
2024/04/11 07:15:43;;;;;;;6.63;2.40;;;13.80;77.00;;;;;;5488375;26;20227;-79
2024/04/11 07:18:14;;;;;;;8.57;2.20;;;13.70;79.00;;;;;;5466040;26;20274;-78
2024/04/11 07:20:48;;;;;;;7.77;2.50;;;13.70;84.30;;;;;;5451474;26;20244;-79
2024/04/11 07:23:14;;;;;;;6.50;2.53;;;13.70;83.20;;;;;;5469200;26;20230;-79
2024/04/11 07:25:40;;;;;;;8.50;2.83;;;13.80;79.30;;;;;;5507032;25;20255;-79
2024/04/11 07:28:07;;;;;;;8.23;2.60;;;13.80;81.20;;;;;;5506963;25;20233;-78
2024/04/11 07:30:35;;;;;;;10.73;2.73;;;13.80;82.00;;;;;;5515805;26;20752;-80
2024/04/11 07:33:02;;;;;;;5.47;2.20;;;13.80;83.20;;;;;;5540508;25;20211;-83
2024/04/11 07:35:46;;;;;;;8.80;3.10;;;13.80;85.00;;;;;;5531882;25;20737;-80
2024/04/11 07:38:14;;;;;;;8.77;2.43;;;14.00;81.60;;;;;;5529047;26;20249;-80
2024/04/11 07:40:45;;;;;;;6.53;2.30;;;14.10;79.40;;;;;;5511184;25;20284;-80
2024/04/11 07:43:13;;;;;;;8.13;2.53;;;14.20;73.50;;;;;;5482996;26;20220;-79
2024/04/11 07:45:44;;;;;;;10.97;2.70;;;14.40;68.60;;;;;;5455382;26;20223;-79
2024/04/11 07:48:12;;;;;;;9.60;2.20;;;14.40;72.80;;;;;;5452244;26;20301;-80
2024/04/11 07:50:39;;;;;;;9.57;2.67;;;14.30;73.60;;;;;;5470593;26;20561;-79
2024/04/11 07:53:14;;;;;;;9.47;2.70;;;14.20;79.10;;;;;;5475915;26;20231;-79
2024/04/11 07:55:44;;;;;;;7.47;2.37;;;14.20;86.90;;;;;;5488337;26;20236;-79
2024/04/11 07:58:10;;;;;;;8.33;2.70;;;14.20;91.90;;;;;;5509002;26;20229;-79
2024/04/11 08:00:39;;;;;;;8.63;2.77;;;14.20;94.30;;;;;;5459333;26;20341;-78
2024/04/11 08:03:08;;;;;;;6.40;2.43;;;14.10;96.20;;;;;;5472615;26;20275;-80
2024/04/11 08:05:34;;;;;;;7.47;2.40;;;14.10;98.60;;;;;;5458352;26;20243;-79
2024/04/11 08:07:59;;;;;;;6.43;2.50;;;14.10;99.90;;;;;;5482634;26;20605;-81
2024/04/11 08:10:29;;;;;;;9.97;2.50;;;14.10;99.90;;;;;;5491023;26;20684;-79
2024/04/11 08:12:54;;;;;;;5.93;2.30;;;14.00;99.90;;;;;;5490675;26;20289;-74
2024/04/11 08:15:20;;;;;;;9.17;2.90;;;14.00;99.90;;;;;;5476296;26;20229;-75
2024/04/11 08:17:47;;;;;;;8.83;2.57;;;14.30;99.90;;;;;;5466808;26;20276;-77
2024/04/11 08:20:13;;;;;;;8.97;2.73;;;14.50;99.90;;;;;;5475269;26;20234;-75
2024/04/11 08:22:42;;;;;;;6.60;2.43;;;14.70;94.60;;;;;;5490655;26;20265;-74
2024/04/11 08:25:09;;;;;;;8.43;3.37;;;14.90;93.40;;;;;;5510021;25;20220;-75
2024/04/11 08:27:37;;;;;;;9.03;2.60;;;14.90;92.20;;;;;;5495627;26;20722;-75
2024/04/11 08:30:06;;;;;;;7.83;3.00;;;14.80;92.80;;;;;;5527409;25;20215;-75
2024/04/11 08:32:32;;;;;;;10.07;3.03;;;14.80;94.60;;;;;;5525057;26;20613;-76
2024/04/11 08:35:00;;;;;;;8.10;3.70;;;14.90;96.20;;;;;;5500515;26;20240;-82
2024/04/11 08:37:28;;;;;;;8.60;3.37;;;15.00;98.60;;;;;;5484804;26;20724;-83
2024/04/11 08:39:55;;;;;;;8.87;2.90;;;15.00;99.90;;;;;;5490300;26;20284;-84
2024/04/11 08:42:22;;;;;;;5.87;2.80;;;14.80;99.90;;;;;;5470407;26;20260;-80
2024/04/11 08:44:50;;;;;;;9.77;3.00;;;14.80;99.90;;;;;;5456647;26;20225;-82
2024/04/11 08:47:16;;;;;;;11.70;3.07;;;14.60;99.90;;;;;;5464114;26;20236;-81
2024/04/11 08:49:42;;;;;;;9.43;2.97;;;14.60;99.90;;;;;;5490886;26;20232;-80
2024/04/11 08:52:15;;;;;;;8.27;2.90;;;14.40;99.90;;;;;;5485143;26;20267;-82
2024/04/11 08:54:42;;;;;;;9.07;3.37;;;14.30;99.90;;;;;;5456892;26;20218;-80
2024/04/11 08:57:11;;;;;;;7.50;2.93;;;14.30;99.90;;;;;;5464465;26;20228;-76
2024/04/11 08:59:41;;;;;;;7.37;3.10;;;14.30;99.90;;;;;;5481979;26;20710;-82
2024/04/11 09:02:08;;;;;;;7.60;3.20;;;14.40;99.90;;;;;;5464087;26;20246;-82
2024/04/11 09:04:34;;;;;;;8.43;3.23;;;14.20;99.90;;;;;;5490139;26;20228;-80
2024/04/11 09:07:00;;;;;;;7.40;2.80;;;14.10;99.90;;;;;;5465825;26;20264;-82
2024/04/11 09:09:27;;;;;;;10.40;3.20;;;14.00;99.90;;;;;;5454038;26;20690;-80
2024/04/11 09:11:53;;;;;;;7.27;3.00;;;13.90;99.90;;;;;;5455898;26;20213;-80
2024/04/11 09:14:19;;;;;;;10.27;3.93;;;13.90;99.90;;;;;;5476648;25;20289;-79
2024/04/11 09:16:45;;;;;;;7.10;3.20;;;14.00;99.90;;;;;;5452203;26;20673;-82
2024/04/11 09:19:11;;;;;;;9.77;3.77;;;14.00;99.90;;;;;;5464580;26;20236;-80
2024/04/11 09:21:44;;;;;;;7.63;3.03;;;14.00;99.90;;;;;;5453711;26;20216;-81
2024/04/11 09:24:13;;;;;;;14.00;3.97;;;14.00;99.90;;;;;;5451624;26;20531;-80
2024/04/11 09:26:41;;;;;;;9.23;3.00;;;14.10;99.90;;;;;;5454197;26;20279;-80
2024/04/11 09:29:11;;;;;;;9.43;3.13;;;14.10;99.90;;;;;;5451589;26;20252;-80
2024/04/11 09:31:37;;;;;;;5.87;3.00;;;14.10;99.90;;;;;;5451912;26;20607;-78
2024/04/11 09:34:11;;;;;;;8.13;3.20;;;14.00;99.90;;;;;;5452765;26;20285;-79
2024/04/11 09:36:43;;;;;;;6.93;3.13;;;14.10;99.90;;;;;;5451110;26;20592;-81
2024/04/11 09:39:12;;;;;;;7.13;2.83;;;14.00;99.90;;;;;;5453707;26;20220;-80
2024/04/11 09:41:40;;;;;;;8.13;2.60;;;14.00;99.90;;;;;;5452584;26;20248;-80
2024/04/11 09:44:07;;;;;;;8.70;3.20;;;14.10;99.90;;;;;;5450889;26;20244;-79
2024/04/11 09:46:41;;;;;;;10.57;3.27;;;14.30;99.90;;;;;;5451085;26;20233;-80
2024/04/11 09:49:09;;;;;;;11.10;3.37;;;14.40;99.90;;;;;;5452654;26;20216;-80
2024/04/11 09:51:38;;;;;;;8.00;3.33;;;14.50;99.90;;;;;;5453052;26;20215;-79
2024/04/11 09:54:12;;;;;;;6.70;2.97;;;14.70;99.90;;;;;;5453342;26;20248;-80
2024/04/11 09:56:42;;;;;;;10.30;3.47;;;14.80;99.90;;;;;;5452512;26;20217;-81
2024/04/11 09:59:09;;;;;;;10.60;3.30;;;14.90;98.50;;;;;;5451090;26;20251;-81
2024/04/11 10:01:38;;;;;;;6.90;3.07;;;14.90;96.10;;;;;;5453186;26;20271;-80
2024/04/11 10:04:21;;;;;;;12.23;3.23;;;15.00;98.40;;;;;;5451282;26;20225;-81
2024/04/11 10:06:52;;;;;;;7.33;3.03;;;15.00;97.70;;;;;;5452912;26;20248;-79
2024/04/11 10:09:18;;;;;;;9.73;3.03;;;15.10;93.70;;;;;;5452598;26;20260;-80
2024/04/11 10:11:55;;;;;;;7.40;2.83;;;15.10;94.80;;;;;;5452980;26;20217;-85
2024/04/11 10:14:28;;;;;;;8.53;2.87;;;15.20;94.60;;;;;;5450209;26;20599;-80
2024/04/11 10:17:01;;;;;;;7.50;2.83;;;15.20;94.10;;;;;;5450569;26;20260;-81
2024/04/11 10:19:28;;;;;;;7.13;2.93;;;15.30;89.60;;;;;;5450735;26;20229;-80
2024/04/11 10:22:04;;;;;;;7.53;2.73;;;15.50;91.30;;;;;;5450666;26;20736;-78
2024/04/11 10:24:40;;;;;;;8.00;3.30;;;15.80;84.50;;;;;;5450344;26;20231;-79
2024/04/11 10:27:09;;;;;;;7.33;2.70;;;16.00;80.30;;;;;;5451975;26;20218;-79
2024/04/11 10:29:49;;;;;;;8.33;2.87;;;16.00;74.60;;;;;;5452168;26;21165;-78
2024/04/11 10:32:26;;;;;;;6.77;2.93;;;16.00;71.50;;;;;;5452312;26;20674;-79
2024/04/11 10:34:57;;;;;;;6.77;2.87;;;16.10;73.70;;;;;;5450750;26;20314;-78
2024/04/11 10:37:33;;;;;;;8.90;3.43;;;16.20;74.50;;;;;;5452166;26;20267;-80
2024/04/11 10:40:00;;;;;;;6.60;2.83;;;16.20;69.60;;;;;;5452028;26;20213;-79
2024/04/11 10:42:36;;;;;;;10.67;3.47;;;16.10;65.20;;;;;;5451892;26;20255;-80
2024/04/11 10:45:17;;;;;;;7.37;3.00;;;16.20;65.30;;;;;;5451551;26;20269;-80
2024/04/11 10:47:44;;;;;;;5.03;3.07;;;16.10;65.10;;;;;;5452321;26;20622;-79
2024/04/11 10:50:13;;;;;;;7.87;3.27;;;16.30;64.00;;;;;;5450218;26;20575;-80
2024/04/11 10:52:45;;;;;;;7.10;3.40;;;16.30;60.60;;;;;;5452120;26;20213;-79
2024/04/11 10:55:14;;;;;;;6.10;3.17;;;16.30;61.70;;;;;;5451742;26;20229;-79
2024/04/11 10:57:44;;;;;;;7.43;3.70;;;16.40;61.10;;;;;;5451679;26;20217;-80
2024/04/11 11:00:11;;;;;;;6.60;3.53;;;16.30;60.50;;;;;;5450863;26;20693;-80
2024/04/11 11:02:39;;;;;;;9.03;3.37;;;16.20;67.20;;;;;;5451355;26;20262;-78
2024/04/11 11:05:07;;;;;;;7.17;3.70;;;16.20;67.70;;;;;;5449750;26;20252;-79
2024/04/11 11:07:35;;;;;;;8.17;3.40;;;16.30;66.90;;;;;;5450587;26;20260;-81
2024/04/11 11:10:11;;;;;;;6.07;3.10;;;16.50;65.70;;;;;;5451013;26;20261;-79
2024/04/11 11:12:37;;;;;;;7.80;3.70;;;16.50;63.80;;;;;;5451208;26;20243;-79
2024/04/11 11:15:03;;;;;;;6.93;3.10;;;16.50;65.50;;;;;;5450795;26;20259;-80
2024/04/11 11:17:31;;;;;;;6.67;3.53;;;16.40;64.40;;;;;;5451014;26;20672;-80
2024/04/11 11:19:58;;;;;;;10.73;3.60;;;16.40;66.60;;;;;;5451097;26;20227;-80
2024/04/11 11:22:33;;;;;;;8.37;3.80;;;16.50;67.40;;;;;;5451357;26;20280;-80
2024/04/11 11:25:00;;;;;;;8.33;4.23;;;16.40;63.80;;;;;;5450901;26;20215;-81
2024/04/11 11:27:33;;;;;;;7.10;3.77;;;16.40;71.20;;;;;;5450242;26;20217;-78
2024/04/11 11:29:59;;;;;;;6.17;3.67;;;16.40;71.60;;;;;;5450201;26;20242;-79
2024/04/11 11:32:25;;;;;;;7.63;4.10;;;16.40;72.50;;;;;;5450639;26;20238;-78
2024/04/11 11:34:52;;;;;;;7.70;4.40;;;16.50;74.40;;;;;;5450964;26;20214;-80
2024/04/11 11:37:21;;;;;;;7.03;4.23;;;16.50;68.20;;;;;;5450537;26;20266;-79
2024/04/11 11:39:55;;;;;;;10.63;4.23;;;16.50;69.80;;;;;;5452557;26;20527;-80
2024/04/11 11:42:31;;;;;;;10.30;5.10;;;16.50;70.30;;;;;;5453822;26;20229;-79
2024/04/11 11:47:35;;;;;;;8.80;5.83;;;16.20;83.00;;;;;;5453836;26;20293;-78
2024/04/11 11:50:17;;;;;;;9.60;5.67;;;16.00;88.60;;;;;;5454119;26;20224;-79
2024/04/11 11:52:45;;;;;;;11.17;5.10;;;16.10;91.00;;;;;;5453549;26;20267;-79
2024/04/11 11:55:16;;;;;;;7.87;4.47;;;16.00;90.80;;;;;;5451482;26;20225;-79
2024/04/11 11:57:43;;;;;;;8.80;4.97;;;16.10;86.70;;;;;;5450007;26;20320;-79
2024/04/11 12:00:19;;;;;;;9.60;5.07;;;15.90;89.20;;;;;;5450068;26;20310;-78
2024/04/11 12:02:51;;;;;;;8.83;5.40;;;15.70;93.30;;;;;;5451565;26;20225;-79
2024/04/11 12:05:23;;;;;;;8.00;4.90;;;15.80;94.70;;;;;;5448687;26;20226;-79
2024/04/11 12:07:59;;;;;;;8.80;4.57;;;15.90;94.00;;;;;;5450329;26;20286;-80
2024/04/11 12:13:30;;;;;;;7.47;5.07;;;16.10;90.70;;;;;;5450250;26;20749;-79
2024/04/11 12:15:57;;;;;;;10.53;4.97;;;16.20;90.00;;;;;;5450192;26;20219;-80
2024/04/11 12:18:22;;;;;;;6.93;4.70;;;16.30;86.50;;;;;;5450006;26;20244;-79
2024/04/11 12:20:51;;;;;;;8.33;4.93;;;16.30;85.90;;;;;;5451776;26;20686;-79
2024/04/11 12:23:19;;;;;;;10.93;4.97;;;16.30;86.70;;;;;;5453406;26;20268;-80
2024/04/11 12:25:44;;;;;;;9.63;5.50;;;16.50;83.60;;;;;;5451486;26;20255;-80
2024/04/11 12:28:11;;;;;;;7.90;5.57;;;16.60;78.50;;;;;;5453102;26;20218;-81
2024/04/11 12:30:40;;;;;;;10.33;5.10;;;16.60;79.10;;;;;;5454657;26;20694;-79
2024/04/11 12:33:08;;;;;;;9.77;5.83;;;16.60;76.50;;;;;;5454050;26;20265;-79
2024/04/11 12:35:55;;;;;;;11.43;5.63;;;16.50;78.80;;;;;;5452356;26;20254;-79
2024/04/11 12:38:21;;;;;;;8.53;5.40;;;16.50;82.20;;;;;;5453624;26;20257;-80
2024/04/11 12:40:50;;;;;;;12.07;5.67;;;16.50;85.80;;;;;;5453614;26;20256;-80
2024/04/11 12:43:19;;;;;;;10.97;5.67;;;16.50;86.20;;;;;;5451806;26;20644;-80
2024/04/11 12:45:52;;;;;;;8.87;4.73;;;16.70;82.20;;;;;;5451433;26;20226;-80
2024/04/11 12:48:24;;;;;;;8.70;5.07;;;16.80;77.50;;;;;;5453511;26;20221;-80
2024/04/11 12:50:54;;;;;;;7.37;4.80;;;16.80;75.70;;;;;;5453472;26;20217;-81
2024/04/11 12:53:25;;;;;;;8.20;5.33;;;16.60;79.00;;;;;;5453339;26;20268;-81
2024/04/11 12:55:57;;;;;;;8.60;5.37;;;16.60;83.90;;;;;;5451687;26;20234;-80